Osku, Iran
Current Conditions -  °F | °C
As of 9:30 AM on Wednesday 28 Jan 2015 (Local Time) from OITT Reporting Station
Clear Clear  
Wind Chill: 36°   Ceiling: Unl
Heat Index: 39°   Visibility: 6mi
Dew Point: 21°   Wind: 5mph
Humidity: 49%   Direction: 90°E
Pressure: 30.09"   Gusts: NA
Location:  37.91°N, 46.14°E
Report Text: OITT 280630Z 09004KT CAVOK 04/M06 Q1019 A3011
Loading
Personal Weather Stations






























Interactive Weather Map New forecast layout! Learn more

10-Day Weather Forecast

Advertisements
Track Severe Weather on mobile